Monterey, CA (93942)

3:32 PM PDT on September 21, 2014 (GMT -0700)
Lover's Point | Change Station
CLOSE
Current Station
Personal Weather Station
Location: Pacific Grove, CA
Elevation: 95 ft
Nearby Weather Stations

Elev 95 ft 36.62 °N, 121.92 °W | Updated 43 seconds ago

Mostly Cloudy
Mostly Cloudy
67.2 °F
Feels Like 67.2 °F
N
5.0
Wind Variable Wind from SW
Gusts 5.0 mph

Today
High -- | Low -- °F
--% Chance of Precip.
Yesterday
High -- | Low -- °F
Precip. -- in
6:54 AM 7:05 PM
Waning Crescent, 5% visible
Pressure 30.05 in
Visibility 10.0 miles
Clouds Mostly Cloudy 1800 ft
Dew Point 61 °F
Humidity 80%
Rainfall 0.00 in
Snow Depth 0 in , 0 in , 0 in
UV 3.0 out of 12
Pollen 3.80 out of 12
Air Quality Not available.
Flu Activity Not available.
METAR KMRY 212154Z 23009KT 10SM BKN018 21/14 A3002 RMK AO2 SLP175 T02060139

More Conditions Fewer Conditions

Pressure 30.05 in
Visibility 10.0 miles
Clouds Mostly Cloudy 1800 ft
Dew Point 61 °F
Humidity 80%
Rainfall 0.00 in
Snow Depth 0 in , 0 in , 0 in
UV 3.0 out of 12
Pollen 3.80 out of 12
Air Quality Not available.
Flu Activity Not available.
METAR KMRY 212154Z 23009KT 10SM BKN018 21/14 A3002 RMK AO2 SLP175 T02060139

More Conditions Fewer Conditions

10-Day Weather Forecast

Almanac

Astronomy

Sep. 21, 2014 Rise Set
Actual Time 6:54 AM PDT 7:05 PM PDT
Civil Twilight 6:28 AM PDT 7:31 PM PDT
Nautical Twilight 5:58 AM PDT 8:01 PM PDT
Astronomical Twilight 5:28 AM PDT 8:32 PM PDT
Moon 4:36 AM PDT 5:42 PM PDT
Length of Visible Light 13h 02m
Length of Day
12h 11m
Tomorrow will be 2m 19s shorter.
Waning Crescent, 5% of the Moon is Illuminated
Today
Waning Crescent
Sep 24
New
Oct 1
First Quarter
Oct 8
Full
Oct 15
Last Quarter

Today's Extremes

State Highs State Lows

Community

WunderPhotos

Upload Photos

1,755,280 photos uploaded!

WunderBlogs® & News

Nearby

Snow Depth

Station Depth Elevation
Fallen Leaf 0 in 6300 ft
Spratt Creek 0 in 6200 ft
Blue Lakes 0 in 8000 ft
Summit Meadow 0 in 9122 ft
Tahoe City Cross 0 in 6750 ft

Earthquake Activity

City Distance Mag. Time & Date
Sonoma, California 121 miles 2.7 1:17 PM PDT
2014-09-21
Livermore, California 74 miles 2.6 3:37 AM PDT
2014-09-19
Minimum magnitude displayed is 2.5.

Coastal Water Temperatures

Place Temperature
Monterey, CA 63.0 °F
Redwood City, CA 73.0 °F

Nearby Weather Stations